Portada
METAR-TAF:

METAR-TAF

Aeroports :

Vijayawada, Índia

latitud: 16-31-44N, longitud: 80-47-45E, altitud: 25 m

Observació

L'informe es va fer fa 7 hores i 20 minuts, a les 16:00 UTC
Vent 3 kt del Sud/Sud-Est
Temperatura 33°C
Humitat 71%
Pressió 1004 hPa
Visibilitat: 5000 m
calitja

METAR: VOBZ 251600Z 16003KT 5000 HZ NSC 33/27 Q1004 NOSIG

Hora: 04:50 (23:20 UTC)

Pronòstic

L'informe es va fer fa 15 hores i 20 minuts, a les 08:00 UTC
Pronòstic vàlid del 25 a les 09 UTC al 25 a les 18 UTC
Vent 6 kt del Sud/Sud-Oest
Visibilitat: 6000 m
Escasses núvols a una alçada de 2000 ft
Evolucionant progressivament
l' 25 a les 12 UTC al 25 a les 14 UTC
Vent kt del Nord
Visibilitat: 5000 m
calitja

TAF: VOBZ 250800Z 2509/2518 20006KT 6000 FEW020 BECMG 2512/2514 00000KT 5000 HZ NSC

Observacions i pronòstics meteorològics de més de 4000 aeroports (METAR i TAF).

Les estacions disponibles són els punts grocs i vermells al mapa.

Posi el ratolí al punt desitjat per veure el nom de l'estació.

Feu clic per veure les observacions i els pronòstics meteorològics.

Per canviar el mapa: feu clic els botons verds amb una creu de color negre per apropar; al botó verd amb un guió per allunyar la imatge; o en les fletxes verdes per a mapes adjacents.


METAR-TAF: